createdAt,value
2022-08-03T00:01:28.350Z,97150.47
2022-08-03T00:03:55.327Z,97154.94
2022-08-03T00:06:21.946Z,97163.38
2022-08-03T00:08:49.467Z,97158.00
2022-08-03T00:11:16.114Z,97160.25
2022-08-03T00:13:43.116Z,97159.00
2022-08-03T00:16:10.770Z,97162.53
2022-08-03T00:18:37.910Z,97159.28
2022-08-03T00:21:05.666Z,97155.38
2022-08-03T00:23:51.527Z,97157.28
2022-08-03T00:26:20.159Z,97150.31
2022-08-03T00:28:46.739Z,97144.25
2022-08-03T00:31:13.858Z,97147.50
2022-08-03T00:33:58.306Z,97144.44
2022-08-03T00:36:27.611Z,97145.28
2022-08-03T00:38:54.962Z,97141.66
2022-08-03T00:41:21.761Z,97142.75
2022-08-03T00:43:48.582Z,97141.38
2022-08-03T00:46:19.199Z,97139.69
2022-08-03T00:48:52.417Z,97141.09
2022-08-03T00:51:20.758Z,97135.19
2022-08-03T00:53:47.899Z,97137.44
2022-08-03T00:56:15.617Z,97139.13
2022-08-03T00:58:44.549Z,97131.69
2022-08-03T01:01:12.478Z,97134.91
2022-08-03T01:03:39.483Z,97137.16
2022-08-03T01:06:29.329Z,97137.00
2022-08-03T01:09:32.049Z,97128.47
2022-08-03T01:12:14.975Z,97127.50
2022-08-03T01:14:50.238Z,97122.56
2022-08-03T01:17:25.832Z,97123.00
2022-08-03T01:20:11.755Z,97122.72
2022-08-03T01:23:09.915Z,97117.09
2022-08-03T01:26:09.444Z,97121.75
2022-08-03T01:28:58.360Z,97120.91
2022-08-03T01:31:33.610Z,97123.72
2022-08-03T01:34:21.479Z,97117.13
2022-08-03T01:36:52.820Z,97117.00
2022-08-03T01:39:22.043Z,97112.78
2022-08-03T01:41:53.437Z,97110.41
2022-08-03T01:44:29.735Z,97110.53
2022-08-03T01:47:00.183Z,97111.41
2022-08-03T01:49:28.524Z,97109.44
2022-08-03T01:52:03.617Z,97107.47
2022-08-03T01:54:37.870Z,97105.78
2022-08-03T01:57:06.089Z,97108.19
2022-08-03T01:59:35.386Z,97104.41
2022-08-03T02:02:28.054Z,97103.00
2022-08-03T02:04:54.133Z,97103.56
2022-08-03T02:07:21.403Z,97099.19
2022-08-03T02:09:53.919Z,97101.72
2022-08-03T02:12:22.759Z,97097.13
2022-08-03T02:14:50.725Z,97104.28
2022-08-03T02:17:18.860Z,97109.59
2022-08-03T02:20:07.402Z,97107.50
2022-08-03T02:22:35.043Z,97103.16
2022-08-03T02:25:01.810Z,97109.31
2022-08-03T02:27:32.467Z,97113.66
2022-08-03T02:30:05.285Z,97097.13
2022-08-03T02:32:36.719Z,97100.63
2022-08-03T02:35:06.884Z,97100.22
2022-08-03T02:37:37.558Z,97103.44
2022-08-03T02:40:11.594Z,97090.69
2022-08-03T02:42:40.294Z,97089.56
2022-08-03T02:45:12.406Z,97092.53
2022-08-03T02:47:54.600Z,97094.34
2022-08-03T02:50:22.952Z,97094.03
2022-08-03T02:52:51.166Z,97094.34
2022-08-03T02:55:21.644Z,97084.81
2022-08-03T02:57:49.988Z,97084.53
2022-08-03T03:00:19.478Z,97086.22
2022-08-03T03:02:58.020Z,97085.34
2022-08-03T03:05:55.754Z,97084.22
2022-08-03T03:08:17.615Z,97081.03
2022-08-03T03:10:46.644Z,97079.88
2022-08-03T03:13:15.780Z,97079.47
2022-08-03T03:15:44.813Z,97080.88
2022-08-03T03:18:12.953Z,97082.28
2022-08-03T03:20:40.930Z,97080.47
2022-08-03T03:23:09.712Z,97086.78
2022-08-03T03:25:36.762Z,97083.13
2022-08-03T03:28:06.353Z,97080.47
2022-08-03T03:30:33.508Z,97073.19
2022-08-03T03:33:00.709Z,97080.75
2022-08-03T03:35:27.972Z,97088.03
2022-08-03T03:37:54.876Z,97083.97
2022-08-03T03:40:22.243Z,97081.03
2022-08-03T03:42:49.819Z,97088.88
2022-08-03T03:45:16.570Z,97081.16
2022-08-03T03:47:43.357Z,97088.16
2022-08-03T03:50:10.987Z,97081.72
2022-08-03T03:52:37.860Z,97085.66
2022-08-03T03:55:04.881Z,97090.97
2022-08-03T03:57:31.499Z,97082.44
2022-08-03T03:59:58.094Z,97084.66
2022-08-03T04:02:24.976Z,97083.81
2022-08-03T04:05:10.212Z,97086.50
2022-08-03T04:08:16.236Z,97085.25
2022-08-03T04:11:00.462Z,97090.41
2022-08-03T04:13:40.905Z,97094.91
2022-08-03T04:16:10.720Z,97091.53
2022-08-03T04:18:40.408Z,97090.69
2022-08-03T04:21:10.569Z,97076.97
2022-08-03T04:23:41.814Z,97084.94
2022-08-03T04:26:12.021Z,97090.41
2022-08-03T04:28:43.539Z,97084.78
2022-08-03T04:31:10.294Z,97084.25
2022-08-03T04:33:38.936Z,97090.81
2022-08-03T04:36:08.923Z,97083.97
2022-08-03T04:38:40.806Z,97089.28
2022-08-03T04:41:08.872Z,97089.28
2022-08-03T04:43:39.643Z,97091.69
2022-08-03T04:46:07.870Z,97090.81
2022-08-03T04:48:34.848Z,97096.00
2022-08-03T04:51:04.327Z,97091.66
2022-08-03T04:53:31.299Z,97094.97
2022-08-03T04:56:07.363Z,97092.91
2022-08-03T04:58:34.119Z,97087.81
2022-08-03T05:01:00.787Z,97100.13
2022-08-03T05:03:27.424Z,97094.69
2022-08-03T05:06:01.678Z,97098.19
2022-08-03T05:08:29.282Z,97102.25
2022-08-03T05:10:59.004Z,97106.97
2022-08-03T05:13:26.130Z,97096.94
2022-08-03T05:15:53.035Z,97102.84
2022-08-03T05:18:19.723Z,97102.94
2022-08-03T05:20:46.351Z,97101.47
2022-08-03T05:23:13.011Z,97107.59
2022-08-03T05:25:39.691Z,97106.88
2022-08-03T05:28:12.876Z,97115.09
2022-08-03T05:30:39.593Z,97111.22
2022-08-03T05:33:06.312Z,97110.84
2022-08-03T05:35:57.920Z,97112.03
2022-08-03T05:38:28.181Z,97109.47
2022-08-03T05:41:21.375Z,97102.69
2022-08-03T05:43:44.988Z,97108.00
2022-08-03T05:46:13.144Z,97107.88
2022-08-03T05:48:40.569Z,97103.69
2022-08-03T05:51:07.767Z,97103.66
2022-08-03T05:53:35.191Z,97099.75
2022-08-03T05:56:13.359Z,97103.03
2022-08-03T05:58:47.211Z,97105.75
2022-08-03T06:01:15.789Z,97106.47
2022-08-03T06:03:42.640Z,97104.50
2022-08-03T06:06:09.569Z,97104.59
2022-08-03T06:08:36.281Z,97104.16
2022-08-03T06:11:03.539Z,97099.75
2022-08-03T06:13:30.287Z,97096.72
2022-08-03T06:15:56.920Z,97097.75
2022-08-03T06:18:24.692Z,97095.50
2022-08-03T06:20:52.278Z,97097.59
2022-08-03T06:23:19.572Z,97103.97
2022-08-03T06:25:46.995Z,97097.13
2022-08-03T06:28:51.778Z,97092.31
2022-08-03T06:31:06.572Z,97091.75
2022-08-03T06:34:31.540Z,97088.75
2022-08-03T06:36:20.493Z,97099.63
2022-08-03T06:38:47.126Z,97091.41
2022-08-03T06:41:13.721Z,97094.09
2022-08-03T06:44:03.984Z,97090.66
2022-08-03T06:47:39.359Z,97088.53
2022-08-03T06:50:17.412Z,97099.34
2022-08-03T06:52:44.622Z,97090.47
2022-08-03T06:55:11.515Z,97095.69
2022-08-03T06:57:38.148Z,97093.38
2022-08-03T07:00:09.187Z,97097.59
2022-08-03T07:02:39.864Z,97094.50
2022-08-03T07:05:07.776Z,97094.09
2022-08-03T07:07:34.463Z,97092.06
2022-08-03T07:10:02.273Z,97101.63
2022-08-03T07:12:37.059Z,97092.91
2022-08-03T07:15:20.482Z,97104.34
2022-08-03T07:18:06.936Z,97103.94
2022-08-03T07:20:33.669Z,97098.31
2022-08-03T07:23:00.272Z,97105.63
2022-08-03T07:25:26.889Z,97102.88
2022-08-03T07:27:53.493Z,97110.22
2022-08-03T07:30:23.384Z,97105.19
2022-08-03T07:32:50.695Z,97106.44
2022-08-03T07:35:25.294Z,97106.22
2022-08-03T07:37:54.287Z,97110.59
2022-08-03T07:40:22.276Z,97111.59
2022-08-03T07:42:52.209Z,97114.31
2022-08-03T07:45:23.564Z,97108.22
2022-08-03T07:47:53.498Z,97109.47
2022-08-03T07:50:21.004Z,97118.22
2022-08-03T07:52:47.962Z,97114.41
2022-08-03T07:55:15.326Z,97116.94
2022-08-03T07:57:42.162Z,97114.69
2022-08-03T08:00:17.114Z,97106.72
2022-08-03T08:02:44.803Z,97110.22
2022-08-03T08:05:12.596Z,97107.06
2022-08-03T08:07:39.762Z,97094.69
2022-08-03T08:10:08.188Z,97097.31
2022-08-03T08:12:35.096Z,97102.69
2022-08-03T08:15:02.105Z,97097.50
2022-08-03T08:17:28.734Z,97091.78
2022-08-03T08:19:55.460Z,97090.06
2022-08-03T08:22:23.482Z,97094.63
2022-08-03T08:24:57.091Z,97094.56
2022-08-03T08:27:23.701Z,97091.59
2022-08-03T08:29:54.244Z,97095.69
2022-08-03T08:32:24.237Z,97102.63
2022-08-03T08:34:51.174Z,97096.63
2022-08-03T08:37:17.813Z,97106.59
2022-08-03T08:39:44.403Z,97106.44
2022-08-03T08:42:11.025Z,97098.19
2022-08-03T08:44:37.706Z,97101.44
2022-08-03T08:47:04.826Z,97103.91
2022-08-03T08:49:34.164Z,97107.97
2022-08-03T08:52:03.254Z,97107.31
2022-08-03T08:54:32.506Z,97110.22
2022-08-03T08:57:02.768Z,97101.25
2022-08-03T08:59:47.882Z,97105.28
2022-08-03T09:02:16.148Z,97102.81
2022-08-03T09:04:43.429Z,97097.81
2022-08-03T09:07:20.006Z,97096.00
2022-08-03T09:10:10.745Z,97091.78
2022-08-03T09:12:48.170Z,97091.66
2022-08-03T09:15:26.586Z,97096.53
2022-08-03T09:17:55.923Z,97090.03
2022-08-03T09:20:24.576Z,97091.06
2022-08-03T09:22:59.040Z,97081.50
2022-08-03T09:25:37.269Z,97078.88
2022-08-03T09:28:10.381Z,97082.41
2022-08-03T09:30:39.981Z,97084.31
2022-08-03T09:33:12.404Z,97094.88
2022-08-03T09:35:54.095Z,97090.25
2022-08-03T09:38:27.411Z,97088.63
2022-08-03T09:40:59.535Z,97089.69
2022-08-03T09:43:27.708Z,97084.59
2022-08-03T09:46:05.449Z,97085.75
2022-08-03T09:48:34.922Z,97083.59
2022-08-03T09:51:32.335Z,97079.31
2022-08-03T09:53:58.969Z,97071.28
2022-08-03T09:56:41.429Z,97077.69
2022-08-03T09:59:09.051Z,97073.16
2022-08-03T10:01:36.147Z,97079.47
2022-08-03T10:04:05.141Z,97088.06
2022-08-03T10:06:32.325Z,97080.25
2022-08-03T10:09:17.335Z,97081.06
2022-08-03T10:11:44.944Z,97082.78
2022-08-03T10:14:22.565Z,97065.84
2022-08-03T10:16:49.707Z,97065.53
2022-08-03T10:19:16.737Z,97067.63
2022-08-03T10:21:57.060Z,97064.44
2022-08-03T10:24:27.363Z,97057.25
2022-08-03T10:27:04.026Z,97053.38
2022-08-03T10:29:42.875Z,97046.63
2022-08-03T10:32:19.104Z,97044.69
2022-08-03T10:34:48.504Z,97050.78
2022-08-03T10:37:17.838Z,97048.91
2022-08-03T10:39:54.233Z,97043.63
2022-08-03T10:42:24.168Z,97049.59
2022-08-03T10:45:16.519Z,97043.31
2022-08-03T10:47:43.507Z,97039.13
2022-08-03T10:50:11.390Z,97038.66
2022-08-03T10:52:57.832Z,97030.72
2022-08-03T10:56:03.538Z,97027.63
2022-08-03T10:58:38.164Z,97030.38
2022-08-03T11:01:58.918Z,97024.34
2022-08-03T11:04:29.327Z,97019.19
2022-08-03T11:07:22.191Z,97024.25
2022-08-03T11:09:54.468Z,97020.53
2022-08-03T11:12:28.303Z,97017.41
2022-08-03T11:15:01.189Z,97013.75
2022-08-03T11:17:28.093Z,97011.84
2022-08-03T11:19:57.618Z,97021.19
2022-08-03T11:22:28.666Z,97016.16
2022-08-03T11:24:57.264Z,97017.22
2022-08-03T11:27:29.539Z,97011.75
2022-08-03T11:30:10.552Z,97010.94
2022-08-03T11:32:37.448Z,97011.09
2022-08-03T11:35:19.498Z,97008.03
2022-08-03T11:38:03.289Z,97014.34
2022-08-03T11:40:43.150Z,97016.03
2022-08-03T11:43:21.964Z,97019.28
2022-08-03T11:46:02.278Z,97015.50
2022-08-03T11:48:34.474Z,97016.47
2022-08-03T11:51:02.267Z,97010.63
2022-08-03T11:53:29.100Z,97006.22
2022-08-03T11:55:59.916Z,97000.72
2022-08-03T11:59:10.956Z,97010.56
2022-08-03T12:01:21.193Z,96999.16
2022-08-03T12:03:50.234Z,97003.97
2022-08-03T12:06:17.886Z,96999.97
2022-08-03T12:08:45.536Z,97001.16
2022-08-03T12:11:15.443Z,96996.63
2022-08-03T12:14:26.824Z,96990.22
2022-08-03T12:16:37.875Z,96983.84
2022-08-03T12:19:06.948Z,96983.09
2022-08-03T12:21:33.829Z,96980.75
2022-08-03T12:24:02.755Z,96978.75
2022-08-03T12:26:30.896Z,96975.06
2022-08-03T12:28:58.402Z,96973.44
2022-08-03T12:31:25.739Z,96979.84
2022-08-03T12:34:06.635Z,96978.78
2022-08-03T12:36:35.222Z,96971.16
2022-08-03T12:39:05.523Z,96968.44
2022-08-03T12:41:35.448Z,96975.03
2022-08-03T12:44:06.554Z,96975.59
2022-08-03T12:46:41.658Z,96973.53
2022-08-03T12:49:13.491Z,96967.34
2022-08-03T12:51:42.960Z,96977.56
2022-08-03T12:54:24.718Z,96974.72
2022-08-03T12:57:04.632Z,96971.81
2022-08-03T12:59:40.818Z,96970.25
2022-08-03T13:02:20.374Z,96957.63
2022-08-03T13:04:52.060Z,96960.41
2022-08-03T13:07:20.558Z,96956.53
2022-08-03T13:09:55.409Z,96957.13
2022-08-03T13:12:24.901Z,96968.84
2022-08-03T13:14:55.025Z,96962.47
2022-08-03T13:17:21.997Z,96970.28
2022-08-03T13:19:49.092Z,96970.31
2022-08-03T13:22:20.640Z,96974.84
2022-08-03T13:24:48.977Z,96966.69
2022-08-03T13:28:11.075Z,96969.06
2022-08-03T13:30:04.538Z,96967.03
2022-08-03T13:32:31.200Z,96958.81
2022-08-03T13:34:57.935Z,96958.28
2022-08-03T13:37:25.400Z,96953.59
2022-08-03T13:39:59.558Z,96953.44
2022-08-03T13:42:32.081Z,96949.41
2022-08-03T13:45:00.349Z,96947.06
2022-08-03T13:47:28.126Z,96942.63
2022-08-03T13:50:00.734Z,96943.75
2022-08-03T13:52:34.080Z,96942.94
2022-08-03T13:55:02.467Z,96932.59
2022-08-03T13:58:19.008Z,96939.31
2022-08-03T14:00:28.190Z,96934.41
2022-08-03T14:03:03.867Z,96932.94
2022-08-03T14:05:32.525Z,96938.88
2022-08-03T14:08:04.527Z,96927.19
2022-08-03T14:10:35.700Z,96925.13
2022-08-03T14:13:02.736Z,96924.19
2022-08-03T14:15:29.772Z,96923.94
2022-08-03T14:17:58.706Z,96923.50
2022-08-03T14:20:37.892Z,96918.00
2022-08-03T14:23:14.349Z,96924.44
2022-08-03T14:25:51.650Z,96916.22
2022-08-03T14:28:23.126Z,96909.09
2022-08-03T14:30:51.008Z,96915.09
2022-08-03T14:33:17.839Z,96909.88
2022-08-03T14:35:44.516Z,96900.50
2022-08-03T14:38:11.156Z,96900.69
2022-08-03T14:40:37.896Z,96901.75
2022-08-03T14:43:04.717Z,96895.09
2022-08-03T14:45:31.329Z,96893.72
2022-08-03T14:50:33.887Z,96889.94
2022-08-03T14:50:51.079Z,96891.91
2022-08-03T14:53:19.173Z,96890.38
2022-08-03T14:55:50.471Z,96898.16
2022-08-03T14:58:22.189Z,96881.94
2022-08-03T15:00:50.486Z,96877.97
2022-08-03T15:03:20.449Z,96888.25
2022-08-03T15:05:47.401Z,96878.28
2022-08-03T15:08:14.033Z,96874.13
2022-08-03T15:10:44.321Z,96867.97
2022-08-03T15:13:15.372Z,96867.88
2022-08-03T15:15:42.170Z,96869.88
2022-08-03T15:18:09.025Z,96875.72
2022-08-03T15:20:44.356Z,96868.16
2022-08-03T15:23:12.283Z,96866.50
2022-08-03T15:26:31.997Z,96855.88
2022-08-03T15:28:25.575Z,96857.09
2022-08-03T15:30:52.899Z,96858.59
2022-08-03T15:33:19.583Z,96855.63
2022-08-03T15:35:47.363Z,96851.22
2022-08-03T15:38:14.000Z,96849.69
2022-08-03T15:40:40.800Z,96854.69
2022-08-03T15:43:07.965Z,96859.00
2022-08-03T15:45:35.316Z,96857.94
2022-08-03T15:48:04.259Z,96848.34
2022-08-03T15:50:30.889Z,96846.06
2022-08-03T15:52:57.543Z,96846.59
2022-08-03T15:55:24.278Z,96845.22
2022-08-03T15:59:09.885Z,96851.19
2022-08-03T16:00:38.484Z,96846.47
2022-08-03T16:03:05.671Z,96841.38
2022-08-03T16:05:32.352Z,96841.94
2022-08-03T16:08:03.432Z,96841.22
2022-08-03T16:10:32.102Z,96837.44
2022-08-03T16:13:00.021Z,96837.72
2022-08-03T16:15:27.384Z,96836.88
2022-08-03T16:17:54.322Z,96840.16
2022-08-03T16:20:31.428Z,96841.09
2022-08-03T16:23:10.702Z,96836.19
2022-08-03T16:25:44.392Z,96828.09
2022-08-03T16:28:17.155Z,96830.69
2022-08-03T16:30:45.601Z,96830.13
2022-08-03T16:33:17.363Z,96830.97
2022-08-03T16:35:46.129Z,96833.22
2022-08-03T16:38:18.522Z,96831.78
2022-08-03T16:40:47.171Z,96825.88
2022-08-03T16:43:18.253Z,96827.53
2022-08-03T16:45:47.165Z,96829.63
2022-08-03T16:48:15.290Z,96828.59
2022-08-03T16:50:42.125Z,96824.19
2022-08-03T16:53:10.047Z,96822.41
2022-08-03T16:55:53.349Z,96821.44
2022-08-03T16:58:34.510Z,96827.59
2022-08-03T17:01:20.880Z,96826.72
2022-08-03T17:04:03.372Z,96825.88
2022-08-03T17:06:35.205Z,96826.13
2022-08-03T17:09:09.386Z,96829.44
2022-08-03T17:11:46.586Z,96826.19
2022-08-03T17:14:21.986Z,96831.19
2022-08-03T17:16:52.939Z,96832.16
2022-08-03T17:19:23.089Z,96825.66
2022-08-03T17:21:59.744Z,96825.00
2022-08-03T17:24:35.571Z,96824.50
2022-08-03T17:28:41.380Z,96819.75
2022-08-03T17:30:18.971Z,96822.44
2022-08-03T17:32:52.735Z,96824.94
2022-08-03T17:35:23.903Z,96820.59
2022-08-03T17:38:03.057Z,96818.13
2022-08-03T17:40:31.680Z,96819.06
2022-08-03T17:43:00.699Z,96817.53
2022-08-03T17:45:51.880Z,96826.88
2022-08-03T17:48:18.518Z,96818.75
2022-08-03T17:50:52.102Z,96821.72
2022-08-03T17:53:28.058Z,96826.03
2022-08-03T17:56:42.413Z,96825.31
2022-08-03T17:59:15.996Z,96825.59
2022-08-03T18:02:29.762Z,96820.88
2022-08-03T18:05:16.040Z,96826.88
2022-08-03T18:07:59.465Z,96827.75
